Ponce, PR (00717)

12:52 PM AST on September 19, 2014 (GMT -0400)
City | Change Station
CLOSE
Current Station
Personal Weather Station
Location: Ponce, PR
Elevation: 36 ft
Nearby Weather Stations

Elev 36 ft 18.00 °N, 66.64 °W | Updated 12 seconds ago

Scattered Clouds
Scattered Clouds
90.9 °F
Feels Like 101 °F
N
11.4
Wind Variable Wind from SE
Gusts 19.7 mph

Today
High -- | Low -- °F
--% Chance of Precip.
Yesterday
High -- | Low -- °F
Precip. -- in
6:14 AM 6:25 PM
Waning Crescent, 18% visible
Pressure 29.94 in
Visibility 10.0 miles
Clouds Few 3000 ft
Scattered Clouds 6000 ft
Heat Index 101 °F
Dew Point 75 °F
Humidity 59%
Rainfall 0.00 in
Snow Depth Not available.
UV 9 out of 12
Pollen Not available.
Air Quality Not available.
Flu Activity Not available.
METAR TJPS 191550Z 13010KT 10SM FEW030 SCT060 32/24 A2994

More Conditions Fewer Conditions

Pressure 29.94 in
Visibility 10.0 miles
Clouds Few 3000 ft
Scattered Clouds 6000 ft
Heat Index 101 °F
Dew Point 75 °F
Humidity 59%
Rainfall 0.00 in
Snow Depth Not available.
UV 9 out of 12
Pollen Not available.
Air Quality Not available.
Flu Activity Not available.
METAR TJPS 191550Z 13010KT 10SM FEW030 SCT060 32/24 A2994

More Conditions Fewer Conditions

10-Day Weather Forecast

Almanac

Astronomy

Sep. 19, 2014 Rise Set
Actual Time 6:14 AM AST 6:25 PM AST
Civil Twilight 5:53 AM AST 6:46 PM AST
Nautical Twilight 5:27 AM AST 7:12 PM AST
Astronomical Twilight 5:02 AM AST 7:37 PM AST
Moon 2:25 AM AST 3:25 PM AST
Length of Visible Light 12h 53m
Length of Day
12h 10m
Tomorrow will be 1m 0s shorter.
Waning Crescent, 18% of the Moon is Illuminated
Today
Waning Crescent
Sep 24
New
Oct 1
First Quarter
Oct 8
Full
Oct 15
Last Quarter

Community

WunderPhotos

Upload Photos

1,754,650 photos uploaded!

Nearby

Snow Depth

Station Depth Elevation
No new snow has been reported.

Earthquake Activity

City Distance Mag. Time & Date
No recent earthquake activity has been reported nearby.
Minimum magnitude displayed is 2.5.

Coastal Water Temperatures

Place Temperature
Magueyes Islands, PR 84.9 °F
Yabucoa Harbor, PR 84.9 °F

Nearby Weather Stations